createdAt,value
2022-12-22T00:00:06.834Z,6.97
2022-12-22T00:06:02.957Z,7.37
2022-12-22T00:11:47.856Z,9.13
2022-12-22T00:17:26.103Z,7.40
2022-12-22T00:23:01.747Z,9.00
2022-12-22T00:28:40.841Z,6.77
2022-12-22T00:34:14.921Z,6.57
2022-12-22T00:39:38.502Z,7.03
2022-12-22T00:44:59.875Z,8.10
2022-12-22T00:50:21.284Z,7.53
2022-12-22T00:55:48.222Z,10.20
2022-12-22T01:01:18.474Z,7.73
2022-12-22T01:06:50.452Z,8.47
2022-12-22T01:12:35.350Z,6.57
2022-12-22T01:18:20.552Z,7.33
2022-12-22T01:23:54.924Z,9.50
2022-12-22T01:29:23.072Z,7.43
2022-12-22T01:34:45.373Z,8.37
2022-12-22T01:40:06.966Z,8.73
2022-12-22T01:45:37.358Z,9.37
2022-12-22T01:56:55.801Z,9.50
2022-12-22T02:03:01.198Z,7.83
2022-12-22T02:08:54.738Z,7.33
2022-12-22T02:14:29.733Z,7.40
2022-12-22T02:20:09.062Z,6.83
2022-12-22T02:25:36.013Z,6.00
2022-12-22T02:30:58.908Z,6.03
2022-12-22T02:36:53.283Z,6.43
2022-12-22T02:43:01.124Z,6.53
2022-12-22T02:49:02.511Z,5.23
2022-12-22T02:54:31.135Z,6.17
2022-12-22T02:59:53.456Z,4.10
2022-12-22T03:05:27.205Z,4.17
2022-12-22T03:10:57.112Z,5.07
2022-12-22T03:16:48.438Z,5.17
2022-12-22T03:22:29.277Z,3.57
2022-12-22T03:27:52.394Z,3.53
2022-12-22T03:33:05.091Z,3.73
2022-12-22T03:38:24.059Z,3.60
2022-12-22T03:44:00.107Z,3.13
2022-12-22T03:49:15.629Z,3.43
2022-12-22T03:54:31.112Z,3.63
2022-12-22T03:59:34.693Z,3.80
2022-12-22T04:04:54.527Z,3.50
2022-12-22T04:10:16.141Z,3.80
2022-12-22T04:15:19.107Z,3.63
2022-12-22T04:20:25.149Z,4.30
2022-12-22T04:25:29.828Z,3.20
2022-12-22T04:30:32.799Z,5.17
2022-12-22T04:35:35.809Z,3.47
2022-12-22T04:40:38.892Z,3.60
2022-12-22T04:45:42.043Z,4.93
2022-12-22T04:50:45.234Z,3.53
2022-12-22T04:55:55.620Z,3.57
2022-12-22T05:01:08.488Z,5.27
2022-12-22T05:06:40.600Z,3.97
2022-12-22T05:12:38.053Z,4.53
2022-12-22T05:17:56.684Z,3.93
2022-12-22T05:23:25.577Z,5.60
2022-12-22T05:28:49.115Z,5.30
2022-12-22T05:34:10.216Z,3.67
2022-12-22T05:39:21.529Z,4.50
2022-12-22T05:44:32.182Z,3.20
2022-12-22T05:49:41.936Z,2.67
2022-12-22T05:54:46.105Z,4.20
2022-12-22T05:59:49.226Z,2.93
2022-12-22T06:05:05.313Z,4.00
2022-12-22T06:10:13.107Z,4.23
2022-12-22T06:15:16.692Z,3.57
2022-12-22T06:20:19.740Z,2.73
2022-12-22T06:25:22.713Z,2.83
2022-12-22T06:30:33.011Z,3.87
2022-12-22T06:35:37.839Z,3.03
2022-12-22T06:40:40.784Z,2.40
2022-12-22T06:45:44.656Z,3.90
2022-12-22T06:50:54.469Z,3.23
2022-12-22T06:56:53.429Z,3.43
2022-12-22T07:02:27.277Z,2.67
2022-12-22T07:07:32.837Z,2.73
2022-12-22T07:12:52.941Z,2.87
2022-12-22T07:18:16.840Z,2.60
2022-12-22T07:23:38.424Z,2.90
2022-12-22T07:29:09.451Z,1.97
2022-12-22T07:34:25.813Z,3.07
2022-12-22T07:39:35.488Z,2.67
2022-12-22T07:44:40.072Z,2.57
2022-12-22T07:50:02.545Z,2.00
2022-12-22T07:55:05.989Z,2.90
2022-12-22T08:00:10.117Z,3.40
2022-12-22T08:05:41.693Z,4.87
2022-12-22T08:10:51.629Z,5.30
2022-12-22T08:16:26.915Z,3.60
2022-12-22T08:21:37.164Z,4.67
2022-12-22T08:33:00.452Z,3.80
2022-12-22T08:38:10.835Z,4.17
2022-12-22T08:43:14.409Z,7.20
2022-12-22T08:48:17.590Z,3.60
2022-12-22T08:54:04.008Z,3.73
2022-12-22T08:59:16.564Z,5.00
2022-12-22T09:04:46.898Z,2.97
2022-12-22T09:09:57.669Z,6.70
2022-12-22T09:15:00.728Z,2.97
2022-12-22T09:20:05.149Z,4.30
2022-12-22T09:25:08.646Z,3.00
2022-12-22T09:30:12.171Z,2.90
2022-12-22T09:35:15.252Z,3.53
2022-12-22T09:40:21.868Z,2.73
2022-12-22T09:45:25.111Z,1.63
2022-12-22T09:50:30.788Z,3.90
2022-12-22T09:55:39.394Z,3.53
2022-12-22T10:00:42.930Z,1.63
2022-12-22T10:06:36.852Z,1.70
2022-12-22T10:11:45.659Z,1.63
2022-12-22T10:17:45.985Z,5.13
2022-12-22T10:23:13.326Z,2.03
2022-12-22T10:28:49.158Z,0.97
2022-12-22T10:34:20.529Z,1.23
2022-12-22T10:39:35.147Z,1.80
2022-12-22T10:44:44.523Z,0.80
2022-12-22T10:55:19.060Z,2.87
2022-12-22T11:00:31.254Z,2.20
2022-12-22T11:05:45.812Z,1.63
2022-12-22T11:11:12.073Z,1.67
2022-12-22T11:22:45.604Z,3.70
2022-12-22T11:28:28.858Z,1.97
2022-12-22T11:33:43.195Z,2.60
2022-12-22T11:39:00.993Z,2.77
2022-12-22T11:44:12.695Z,4.37
2022-12-22T11:50:46.040Z,3.37
2022-12-22T11:55:58.048Z,2.60
2022-12-22T12:02:12.255Z,2.07
2022-12-22T12:07:32.048Z,4.13
2022-12-22T12:12:59.814Z,2.70
2022-12-22T12:18:37.462Z,2.90
2022-12-22T12:24:04.026Z,2.23
2022-12-22T12:29:26.992Z,3.83
2022-12-22T12:34:38.392Z,1.70
2022-12-22T12:40:18.829Z,3.90
2022-12-22T12:45:43.092Z,1.67
2022-12-22T12:50:53.369Z,3.83
2022-12-22T12:56:22.957Z,2.70
2022-12-22T13:01:47.228Z,3.07
2022-12-22T13:07:09.658Z,4.57
2022-12-22T13:12:47.257Z,4.83
2022-12-22T13:18:04.472Z,3.00
2022-12-22T13:23:23.577Z,3.00
2022-12-22T13:28:46.556Z,2.07
2022-12-22T13:34:17.957Z,2.73
2022-12-22T13:39:27.476Z,4.47
2022-12-22T13:44:34.262Z,5.13
2022-12-22T13:50:07.230Z,2.07
2022-12-22T13:55:01.748Z,1.43
2022-12-22T14:00:05.215Z,2.03
2022-12-22T14:05:30.558Z,1.73
2022-12-22T14:10:50.745Z,3.00
2022-12-22T14:16:31.868Z,4.67
2022-12-22T14:21:49.298Z,3.60
2022-12-22T14:27:15.548Z,2.70
2022-12-22T14:33:00.118Z,1.50
2022-12-22T14:38:26.073Z,3.00
2022-12-22T14:43:40.840Z,4.20
2022-12-22T14:48:57.944Z,6.77
2022-12-22T14:54:12.043Z,4.70
2022-12-22T14:59:28.523Z,1.80
2022-12-22T15:04:47.714Z,3.80
2022-12-22T15:10:18.359Z,4.40
2022-12-22T15:15:17.778Z,2.27
2022-12-22T15:20:26.381Z,2.77
2022-12-22T15:25:29.647Z,3.17
2022-12-22T15:30:32.738Z,3.77
2022-12-22T15:35:36.091Z,2.17
2022-12-22T15:40:39.098Z,2.57
2022-12-22T15:45:43.489Z,5.03
2022-12-22T15:50:46.775Z,4.33
2022-12-22T15:56:20.277Z,5.80
2022-12-22T16:01:37.545Z,4.40
2022-12-22T16:06:58.464Z,5.50
2022-12-22T16:12:18.912Z,6.13
2022-12-22T16:17:46.768Z,8.13
2022-12-22T16:23:06.022Z,6.00
2022-12-22T16:28:32.899Z,7.50
2022-12-22T16:33:53.512Z,10.13
2022-12-22T16:39:08.635Z,8.00
2022-12-22T16:44:39.382Z,9.80
2022-12-22T16:49:44.046Z,7.17
2022-12-22T16:54:52.531Z,6.40
2022-12-22T16:59:56.033Z,12.20
2022-12-22T17:05:15.296Z,9.47
2022-12-22T17:10:28.483Z,7.83
2022-12-22T17:15:50.063Z,8.30
2022-12-22T17:21:26.658Z,10.87
2022-12-22T17:26:36.114Z,7.70
2022-12-22T17:32:07.315Z,8.03
2022-12-22T17:37:31.233Z,9.63
2022-12-22T17:42:45.278Z,8.20
2022-12-22T17:48:08.621Z,7.83
2022-12-22T17:53:36.247Z,6.43
2022-12-22T17:59:02.616Z,8.33
2022-12-22T18:04:31.204Z,9.77
2022-12-22T18:09:35.383Z,10.60
2022-12-22T18:14:38.353Z,8.80
2022-12-22T18:19:41.956Z,10.90
2022-12-22T18:24:45.038Z,12.17
2022-12-22T18:29:48.188Z,10.43
2022-12-22T18:34:51.301Z,10.60
2022-12-22T18:39:54.341Z,11.17
2022-12-22T18:44:57.384Z,10.13
2022-12-22T18:50:03.055Z,15.63
2022-12-22T18:55:24.795Z,14.00
2022-12-22T19:00:31.183Z,21.10
2022-12-22T19:05:50.083Z,12.40
2022-12-22T19:11:29.018Z,14.37
2022-12-22T19:17:02.618Z,11.80
2022-12-22T19:22:24.781Z,12.27
2022-12-22T19:28:01.439Z,11.60
2022-12-22T19:33:19.391Z,12.80
2022-12-22T19:38:32.375Z,11.70
2022-12-22T19:43:40.743Z,10.97
2022-12-22T19:48:49.858Z,10.43
2022-12-22T19:54:08.590Z,14.57
2022-12-22T19:59:37.566Z,13.33
2022-12-22T20:10:13.832Z,11.50
2022-12-22T20:15:48.845Z,11.37
2022-12-22T20:21:30.269Z,11.50
2022-12-22T20:26:54.244Z,12.03
2022-12-22T20:32:07.708Z,12.30
2022-12-22T20:37:31.072Z,11.10
2022-12-22T20:42:59.987Z,11.23
2022-12-22T20:48:20.406Z,8.67
2022-12-22T20:53:49.472Z,11.57
2022-12-22T20:59:12.094Z,10.90
2022-12-22T21:04:19.072Z,11.83
2022-12-22T21:09:23.218Z,11.83
2022-12-22T21:14:32.704Z,10.37
2022-12-22T21:19:36.307Z,10.53
2022-12-22T21:24:39.423Z,13.47
2022-12-22T21:29:42.430Z,13.93
2022-12-22T21:34:47.717Z,12.77
2022-12-22T21:39:50.943Z,12.60
2022-12-22T21:44:53.991Z,13.63
2022-12-22T21:49:56.984Z,12.17
2022-12-22T21:55:05.450Z,12.53
2022-12-22T22:00:12.927Z,12.03
2022-12-22T22:05:51.400Z,11.43
2022-12-22T22:11:03.974Z,12.23
2022-12-22T22:16:30.538Z,11.00
2022-12-22T22:21:51.019Z,10.17
2022-12-22T22:27:14.214Z,8.13
2022-12-22T22:32:33.504Z,8.43
2022-12-22T22:38:03.585Z,9.43
2022-12-22T22:43:07.256Z,6.80
2022-12-22T22:48:28.841Z,6.03
2022-12-22T22:53:36.321Z,4.97
2022-12-22T23:04:10.521Z,5.17
2022-12-22T23:09:30.403Z,6.27
2022-12-22T23:14:36.761Z,7.50
2022-12-22T23:19:40.222Z,5.33
2022-12-22T23:24:43.266Z,6.47
2022-12-22T23:29:46.262Z,5.20
2022-12-22T23:34:49.460Z,7.20
2022-12-22T23:39:52.585Z,5.13
2022-12-22T23:44:55.555Z,5.17
2022-12-22T23:50:01.593Z,6.67
2022-12-22T23:55:05.462Z,6.87
